London, United Kingdom

20. октобар 2017, 02:35 BST (GMT +0100)
Bloomsbury | | Change Station

Надм.вис. 160 ft 51.52 °N, 0.13 °W | Updated 5 seconds ago

Претежно облачно
Претежно облачно
55.6 °F
Субјективни осећај 55.6 °F
С
2.7
Ветар Променљив Ветар из Западни
Gusts 4.9 mph

Данас
Макс. -- | Мин. -- °F
--% Вероватноћа за падавине
Јуче
Макс. -- | Мин. -- °F
Precip. -- инч
Притисак 29.50 инч
Видљивост 6.2 миља
Облаци Мало облачно 1100 ft
Претежно облачно 1400 ft
Тачка росе 51 °F
Влажност ваздуха 86%
Киша 0.01 инч
Висина снега Није доступно.
7:33 AM 5:56 PM
Млад месец, 0% visible
METAR EGMC 192350Z 17021G31KT 9999 SCT011 BKN014 14/11 Q0999
Притисак 29.50 инч
Видљивост 6.2 миља
Облаци Мало облачно 1100 ft
Претежно облачно 1400 ft
Тачка росе 51 °F
Влажност ваздуха 86%
Киша 0.01 инч
Висина снега Није доступно.
7:33 AM 5:56 PM
Млад месец, 0% visible
METAR EGMC 192350Z 17021G31KT 9999 SCT011 BKN014 14/11 Q0999

Get Severe Weather Alerts

Thanks for signing up!

Be on the lookout for a verification email in your inbox.

You'll start receiving the daily forecast at 6 AM.

×

10-Day Weather Forecast

×

Almanac

Астрономија

Oct. 20, 2017 Излазак Залазак
Тренутно време
Цивилни сумрак
Наутички сумрак
Астрономски сумрак
Месец
Трајање видљиве светлости
Обданица
Tomorrow will be .
, % of the Moon is Illuminated

Данашњи екстреми

Највише Најниже

Community

Category 6

Welcome to Category 6. This is the collective home for Weather Underground's featured writeups by Dr. Jeff Masters (right), Bob Henson (left), Chris Burt, and other regular contributors.

Nearby

Квалитет ваздуха (AQ)

  Квалитет ваздуха (AQ) Индекс AQ Загађење
Not available.

Висина снега

станица Висина снега Висина

Земљотрес

Место Удаљеност Магнитуда Време и датум
Минимална магнитуда која се објављује је 2.5

Темп. воде у приобаљу

Место Температура

Stations

Оближње метео-станице

Локација станице Темп. Субјективни осећај Тачка росе Влажност ваздуха Ветар Precip. Надм.вис. Ажурирано Тип